Avella, Pennsylvania
Current Conditions -  °F | °C
As of 7:11 AM on Tuesday 27 Jan 2015 (Local Time) from KHLG Reporting Station
Light Snow Light Snow  
Wind Chill: -13°   Ceiling: 1900
Heat Index: -8°   Visibility: 6mi
Dew Point: -11°   Wind: 8mph
Humidity: 81%   Direction: 330°NNW
Pressure: 29.89"   Gusts: NA
Location:  40.28°N, 80.46°W
Report Text: KHLG 271211Z 33007KT 6SM -SN FEW013 OVC019 M08/M11 A2989 RMK AO2 P0000 T10781106
Loading
Personal Weather Stations






























Interactive Weather Map New forecast layout! Learn more

10-Day Weather Forecast

Advertisements
Track Severe Weather on mobile